Tiempo atmosférico en la estación meteorológica de Valsequillo, Córdoba (575 m.)



Fecha
DESCASC
Temp. máxima en grados centígrados (hora)
DESCASC
Temp. mínima en grados centígrados (hora)
DESCASC
Temp. media en grados centígrados
DESCASC
Racha de viento máxima en m/sg (hora)
DESCASC
Velocidad máxima media en intervalos de 10 minutos(hora)
DESCASC
Precipitaciones diarias en mm
DESCASC
Precipitaciones de 00:00 a 06:00 en mm
DESCASC
Precipitaciones de 06:00 a 12:00 en mm
DESCASC
Precipitaciones de 12:00 a 18:00 en mm
DESCASC
Precipitaciones de 18:00 a 24:00 en mm
DESCASC
22-01-2020 10.1 (15:20) 3.5 (00:30) 6.8 7.22 (12:30) 5 (12:40) 3.8 2.6 1.2 0 0
21-01-2020 7.2 (15:40) 3.8 (08:50) 5.5 10.56 (00:50) 6.67 (01:10) 0 0 0 0 0
20-01-2020 6.8 (16:50) 3.3 (08:30) 5.1 14.44 (11:10) 8.33 (17:10) 0 0 0 0 0
19-01-2020 9.7 (12:50) 4.5 (00:00) 7.1 13.33 (19:30) 8.33 (13:00) 0 0 0 0 0
18-01-2020 11.3 (17:40) 5.9 (00:00) 8.6 11.39 (23:30) 8.33 (23:30) 8.8 0 5.2 3 0.6
17-01-2020 13.9 (15:50) 6.1 (00:00) 10 5.83 (02:10) 3.89 (16:20) 0.2 0.2 0 0 0
16-01-2020 15.8 (15:50) 4.4 (00:00) 10.1 7.78 (13:50) 5.56 (17:00) 0 0 0 0 0
15-01-2020 14 (15:10) 4.5 (00:00) 9.3 9.72 (13:20) 5.56 (13:30) 0.4 0 0 0 0.4
14-01-2020 11.7 (15:10) -1.5 (-00:0) 5.1 6.67 (22:30) 4.17 (22:30) 0 0 0 0 0
13-01-2020 12.2 (16:10) -2.8 (-00:0) 4.7 4.72 (13:10) 3.06 (15:40) 0 0 0 0 0
12-01-2020 13.4 (15:50) -2.9 (-00:0) 5.2 3.33 (17:00) 2.22 (16:50) 0 0 0 0 0
11-01-2020 11.7 (15:20) 0.1 (00:00) 5.9 5.28 (07:50) 3.61 (01:50) 0 0 0 0 0
10-01-2020 12 (15:50) 1.2 (00:00) 6.6 7.22 (15:00) 4.44 (04:10) 0 0 0 0 0
09-01-2020 14.1 (16:40) -1 (-00:0) 6.6 5.83 (13:30) 3.61 (13:30) 0 0 0 0 0
08-01-2020 18.1 (16:50) -1.8 (-00:0) 8.2 2.22 (14:40) 1.11 (13:00) 0 0 0 0 0
07-01-2020 15.4 (15:40) -1.8 (-00:0) 6.8 4.44 (14:10) 2.22 (15:10) 0 0 0 0 0
06-01-2020 14.9 (16:00) -2.5 (-00:0) 6.2 2.78 (16:50) 1.39 (17:00) 0 0 0 0 0
05-01-2020 12.1 (16:30) -2.2 (-00:0) 5 3.33 (14:00) 1.94 (17:10) 0 0 0 0 0
04-01-2020 11 (15:30) 0.4 (00:00) 5.7 7.78 (09:00) 4.17 (13:10) 0 0 0 0 0
03-01-2020 10.3 (16:10) 0.9 (00:00) 5.6 5 (15:10) 2.78 (14:40) 0 0 0 0 0
02-01-2020 14.8 (14:50) 0.3 (00:00) 7.6 5.56 (15:10) 3.61 (15:20) 0 0 0 0 0
01-01-2020 15.8 (15:40) -1 (-00:0) 7.4 2.5 (16:40) 1.39 (16:50) 0 0 0 0 0
31-12-2019 15.1 (16:30) -0.7 (-00:0) 7.2 3.06 (13:10) 1.67 (13:10) 0 0 0 0 0
30-12-2019 -- (--) -- (--) -- -- (--) -- (--) -- 0 0 -- 0
29-12-2019 17.7 (15:00) 1.3 (00:00) 9.5 3.06 (16:20) 1.67 (16:30) 0 0 0 0 0
28-12-2019 19 (15:50) 2.4 (00:00) 10.7 3.61 (16:40) 2.78 (18:20) 0 0 0 0 0
27-12-2019 17.4 (15:20) 4.7 (00:00) 11 4.44 (15:30) 2.5 (16:10) 0 0 0 0 0
26-12-2019 16.5 (13:40) 4.2 (00:00) 10.3 4.72 (16:00) 2.5 (16:00) 0 0 0 0 0
25-12-2019 20.3 (15:40) 2.7 (00:00) 11.5 2.78 (15:10) 1.94 (15:50) 0 0 0 0 0

Gráficas

Temp. máximas Temp. mínimas Temp. medias Precipitaciones Rachas de viento máximas Velocidades máximas media en intervalos de 10 minutos

Datos horarios

Fecha y hora oficial Temperatura (ºC) Velocidad del viento (km/h) Dirección del viento Racha (km/h) Dirección de racha Precipitación (mm) Presión (hPa) Tendencia (hPa) Humedad (%)
2020-01-23 23:00:00 7.2 11 Sudeste 18 Sudeste 0.6 -- -- 95
2020-01-23 22:00:00 7.3 11 Sudeste 21 Sur 1.4 -- -- 96
2020-01-23 21:00:00 7.4 13 Sur 22 Sur 2.2 -- -- 95
2020-01-23 20:00:00 7.5 13 Sudeste 22 Sudeste 0.4 -- -- 94
2020-01-23 19:00:00 7.5 11 Sudeste 19 Sudeste 0.4 -- -- 95
2020-01-23 18:00:00 7.9 6 Sudoeste 29 Sudeste 0.8 -- -- 91
2020-01-23 17:00:00 9.1 18 Sudeste 33 Sudeste 0 -- -- 85
2020-01-23 16:00:00 9.1 20 Sudeste 32 Sudeste 0 -- -- 84
2020-01-23 15:00:00 9.4 20 Sudeste 36 Sur 0 -- -- 81
2020-01-23 14:00:00 9.3 19 Sudeste 36 Sudeste 0 -- -- 83
2020-01-23 13:00:00 8.7 25 Sudeste 41 Sudeste 0 -- -- 83
2020-01-23 12:00:00 8.3 22 Sudeste 34 Sur 0 -- -- 91
2020-01-23 11:00:00 7.7 22 Sudeste 32 Sudeste 0 -- -- 88
2020-01-23 10:00:00 6.9 19 Sudeste 36 Sudeste 0 -- -- 91
2020-01-23 09:00:00 6.5 19 Sudeste 33 Sudeste 0 -- -- 92
2020-01-23 08:00:00 6.4 20 Sudeste 31 Sudeste 0 -- -- 92
2020-01-23 07:00:00 6.4 18 Sudeste 28 Sudeste 0.4 -- -- 92
2020-01-23 06:00:00 6.4 15 Sudeste 27 Sudeste 0 -- -- 92
2020-01-23 05:00:00 6.6 18 Sudeste 26 Sudeste 0 -- -- 92
2020-01-23 04:00:00 6.6 16 Sudeste 27 Sudeste 0 -- -- 91
2020-01-23 03:00:00 6.7 16 Sudeste 25 Sudeste 0 -- -- 90
2020-01-23 02:00:00 6.9 13 Sudeste 23 Sudeste 0 -- -- 88
2020-01-23 01:00:00 6 6 Sudeste 14 Sudeste 0 -- -- 91
2020-01-23 00:00:00 6.6 9 Sudeste 15 Sudeste 0 -- -- 88
2020-01-22 23:00:00 6.2 4 Sudeste 16 Sur 0 -- -- 87
2020-01-22 22:00:00 7 8 Sur 15 Sudeste 0 -- -- 84
2020-01-22 21:00:00 6.7 11 Sudeste 18 Sudeste 0 -- -- 83
2020-01-22 20:00:00 6.6 5 Sudeste 13 Sudeste 0 -- -- 82
2020-01-22 19:00:00 7 7 Sudeste 15 Este 0 -- -- 79
2020-01-22 18:00:00 8.7 10 Sudeste 19 Sudeste 0 -- -- 75
2020-01-22 17:00:00 9.5 11 Sudeste 18 Sudeste 0 -- -- 71
2020-01-22 16:00:00 9.5 5 Este 21 Sudeste 0 -- -- 76
2020-01-22 15:00:00 9.8 13 Sudeste 25 Sudeste 0 -- -- 72
2020-01-22 14:00:00 9.3 13 Sudeste 24 Sudeste 0 -- -- 78
2020-01-22 13:00:00 8.7 18 Sudeste 26 Sudeste 0 -- -- 81
2020-01-22 12:00:00 7.5 5 Sudeste 19 Sudeste 0 -- -- 90
2020-01-22 11:00:00 6.1 8 Este 21 Este 0 -- -- 96
2020-01-22 10:00:00 5.2 12 Este 19 Este 0.2 -- -- 97
2020-01-22 09:00:00 5 9 Este 18 Este 0.4 -- -- 98
2020-01-22 08:00:00 4.5 9 Este 14 Este 0.2 -- -- 98
2020-01-22 07:00:00 4.2 4 Nordeste 10 Este 0.4 -- -- 98
2020-01-22 06:00:00 4 9 Este 13 Este 1 -- -- 98
2020-01-22 05:00:00 3.7 6 Este 12 Este 1.2 -- -- 97
2020-01-22 04:00:00 3.6 5 Nordeste 12 Este 0.4 -- -- 96
2020-01-22 03:00:00 3.7 4 Nordeste 9 Este 0 -- -- 94
2020-01-22 02:00:00 3.6 7 Nordeste 15 Nordeste 0 -- -- 94
2020-01-22 01:00:00 3.7 6 Este 13 Este 0 -- -- 92
2020-01-22 00:00:00 4.1 4 Nordeste 13 Este 0 -- -- 89
2020-01-21 23:00:00 4.5 6 Nordeste 14 Nordeste 0 -- -- 89
2020-01-21 22:00:00 4.9 4 Nordeste 26 Nordeste 0 -- -- 88
2020-01-21 21:00:00 6 14 Nordeste 27 Nordeste 0 -- -- 83
2020-01-21 20:00:00 6.3 10 Nordeste 23 Nordeste 0 -- -- 82
2020-01-21 19:00:00 6.1 7 Nordeste 17 Nordeste 0 -- -- 82
2020-01-21 18:00:00 5.9 10 Nordeste 26 Nordeste 0 -- -- 87
2020-01-21 17:00:00 6.8 10 Nordeste 28 Nordeste 0 -- -- 76
2020-01-21 16:00:00 7 14 Nordeste 29 Norte 0 -- -- 73
2020-01-21 15:00:00 7.1 15 Nordeste 36 Nordeste 0 -- -- 73
2020-01-21 14:00:00 7 17 Nordeste 31 Este 0 -- -- 72
2020-01-21 13:00:00 6.1 19 Nordeste 38 Nordeste 0 -- -- 74
2020-01-21 12:00:00 6.3 20 Nordeste 36 Nordeste 0 -- -- 71
2020-01-21 11:00:00 5.1 20 Nordeste 32 Nordeste 0 -- -- 70
2020-01-21 10:00:00 4.4 17 Nordeste 33 Nordeste 0 -- -- 73
2020-01-21 09:00:00 4.1 21 Nordeste 31 Nordeste 0 -- -- 73
2020-01-21 08:00:00 4.3 13 Nordeste 32 Nordeste 0 -- -- 75
2020-01-21 07:00:00 4.6 19 Nordeste 33 Nordeste 0 -- -- 73
2020-01-21 06:00:00 4.5 14 Nordeste 35 Nordeste 0 -- -- 72
2020-01-21 05:00:00 4.3 15 Nordeste 28 Nordeste 0 -- -- 71
2020-01-21 04:00:00 4.6 13 Nordeste 33 Nordeste 0 -- -- 71
2020-01-21 03:00:00 4.9 15 Nordeste 36 Nordeste 0 -- -- 73
2020-01-21 02:00:00 4.5 17 Nordeste 38 Nordeste 0 -- -- 75
2020-01-21 01:00:00 4.8 23 Nordeste 38 Nordeste 0 -- -- 74
2020-01-21 00:00:00 5.2 18 Nordeste 36 Nordeste 0 -- -- 72
2020-01-20 23:00:00 5 12 Nordeste 32 Nordeste 0 -- -- 75
2020-01-20 22:00:00 4.6 16 Nordeste 32 Nordeste 0 -- -- 77
2020-01-20 21:00:00 4.5 16 Nordeste 40 Nordeste 0 -- -- 76
2020-01-20 20:00:00 4.9 26 Nordeste 49 Nordeste 0 -- -- 76
2020-01-20 19:00:00 5.6 13 Nordeste 40 Nordeste 0 -- -- 70
2020-01-20 18:00:00 6.2 21 Nordeste 47 Nordeste 0 -- -- 65
2020-01-20 17:00:00 6.4 26 Nordeste 50 Nordeste 0 -- -- 61
2020-01-20 16:00:00 6.1 24 Nordeste 45 Norte 0 -- -- 60
2020-01-20 15:00:00 6.2 27 Nordeste 48 Nordeste 0 -- -- 60
2020-01-20 14:00:00 4 20 Nordeste 51 Nordeste 0 -- -- 69
2020-01-20 13:00:00 3.7 24 Nordeste 50 Nordeste 0 -- -- 69
2020-01-20 12:00:00 4.2 24 Nordeste 52 Nordeste 0 -- -- 64
2020-01-20 11:00:00 4.2 26 Nordeste 48 Nordeste 0 -- -- 60
2020-01-20 10:00:00 5.2 22 Nordeste 43 Nordeste 0 -- -- 56
2020-01-20 09:00:00 3.7 21 Nordeste 39 Nordeste 0 -- -- 60
2020-01-20 08:00:00 3.6 17 Nordeste 42 Este 0 -- -- 57
2020-01-20 07:00:00 3.9 18 Nordeste 36 Este 0 -- -- 58
2020-01-20 06:00:00 4 15 Nordeste 44 Nordeste 0 -- -- 56
2020-01-20 05:00:00 3.8 12 Nordeste 27 Nordeste 0 -- -- 60
2020-01-20 04:00:00 3.9 15 Nordeste 29 Nordeste 0 -- -- 61
2020-01-20 03:00:00 3.7 17 Nordeste 32 Nordeste 0 -- -- 66
2020-01-20 02:00:00 4 16 Nordeste 32 Este 0 -- -- 65
2020-01-20 01:00:00 4.8 18 Nordeste 43 Nordeste 0 -- -- 58
2020-01-20 00:00:00 4.9 11 Nordeste 25 Nordeste 0 -- -- 64
2020-01-19 23:00:00 4.6 10 Nordeste 23 Norte 0 -- -- 74
2020-01-19 22:00:00 5 13 Nordeste 26 Este 0 -- -- 73
2020-01-19 21:00:00 5.3 14 Este 37 Nordeste 0 -- -- 73
2020-01-19 20:00:00 5.8 18 Nordeste 48 Este 0 -- -- 75
2020-01-19 19:00:00 7.7 18 Nordeste 37 Nordeste 0 -- -- 55
2020-01-19 18:00:00 8.8 21 Norte 43 Norte 0 -- -- 55
2020-01-19 17:00:00 8.8 26 Norte 41 Norte 0 -- -- 61
2020-01-19 16:00:00 8.9 25 Norte 41 Nordeste 0 -- -- 64
2020-01-19 15:00:00 9.2 21 Norte 35 Norte 0 -- -- 75
2020-01-19 14:00:00 9.1 23 Norte 40 Norte 0 -- -- 74
2020-01-19 13:00:00 9.7 30 Norte 39 Norte 0 -- -- 73
2020-01-19 12:00:00 8.9 18 Norte 26 Noroeste 0 -- -- 78
2020-01-19 11:00:00 7.9 19 Noroeste 27 Noroeste 0 -- -- 86
2020-01-19 10:00:00 6.1 14 Noroeste 25 Noroeste 0 -- -- 96
2020-01-19 09:00:00 5.2 12 Noroeste 24 Noroeste 0 -- -- 96
2020-01-19 08:00:00 6.2 18 Noroeste 28 Noroeste 0 -- -- 95
2020-01-19 07:00:00 6.1 16 Noroeste 27 Noroeste 0 -- -- 94
2020-01-19 06:00:00 5.9 13 Noroeste 32 Noroeste 0 -- -- 91
2020-01-19 05:00:00 6.2 26 Noroeste 36 Noroeste 0 -- -- 89
2020-01-19 04:00:00 6.8 21 Noroeste 35 Noroeste 0 -- -- 88
2020-01-19 03:00:00 7.8 22 Noroeste 40 Oeste 0 -- -- 87
2020-01-19 02:00:00 8.5 17 Oeste 24 Noroeste 0 -- -- 90
2020-01-19 01:00:00 8.1 16 Oeste 31 Oeste 0 -- -- 88
2020-01-19 00:00:00 9.2 22 Oeste 41 Oeste 0 -- -- 86
2020-01-18 23:00:00 10.4 19 Noroeste 33 Oeste 0 -- -- 89
2020-01-18 22:00:00 10.8 20 Oeste 29 Sudoeste 0 -- -- 94
2020-01-18 21:00:00 10 12 Sudoeste 23 Sudoeste 0 -- -- 97
2020-01-18 20:00:00 10.6 4 Sur 24 Sur 0 -- -- 97
2020-01-18 19:00:00 11.2 16 Sudoeste 26 Sudoeste 0.6 -- -- 97
2020-01-18 18:00:00 11.3 11 Sur 22 Sudoeste 0 -- -- 98
2020-01-18 17:00:00 11 12 Sur 24 Sur 0.2 -- -- 98
2020-01-18 16:00:00 10.7 13 Sur 27 Sur 0.2 -- -- 97
2020-01-18 15:00:00 10 18 Sur 31 Sur 0.4 -- -- 97
2020-01-18 14:00:00 9.6 18 Sur 32 Sur 0.8 -- -- 96
2020-01-18 13:00:00 9.4 15 Sur 30 Sur 1.4 -- -- 97
2020-01-18 12:00:00 9.3 18 Sur 38 Sur 1.4 -- -- 95
2020-01-18 11:00:00 9.2 19 Sur 33 Sur 1.2 -- -- 93
2020-01-18 10:00:00 9.2 14 Sur 28 Sur 0.2 -- -- 92
2020-01-18 09:00:00 8.7 13 Sur 24 Sur 0.6 -- -- 95
2020-01-18 08:00:00 8.3 8 Sur 14 Sur 1.8 -- -- 94
2020-01-18 07:00:00 8.1 7 Sudoeste 12 Sudoeste 0 -- -- 91
2020-01-18 06:00:00 8.3 8 Sur 13 Sur 0 -- -- 88
2020-01-18 05:00:00 7.2 6 Sudeste 12 Sur 0 -- -- 91
2020-01-18 04:00:00 6.7 2 Sudoeste 6 Sudoeste 0 -- -- 93
2020-01-18 03:00:00 6.7 0 Calma 3 Este 0 -- -- 93
2020-01-18 02:00:00 6.4 2 Oeste 6 Sudoeste 0 -- -- 94
2020-01-18 01:00:00 6.4 0 Calma 8 Sudoeste 0 -- -- 92
2020-01-18 00:00:00 6.1 2 Sur 5 Sudoeste 0 -- -- 91
2020-01-17 23:00:00 6.5 0 Calma 5 Este 0 -- -- 92
2020-01-17 22:00:00 7.2 4 Este 6 Este 0 -- -- 89
2020-01-17 21:00:00 7.2 3 Oeste 4 Oeste 0 -- -- 88
2020-01-17 20:00:00 7.5 2 Noroeste 6 Oeste 0 -- -- 88
2020-01-17 19:00:00 9 0 Calma 9 Noroeste 0 -- -- 80
2020-01-17 18:00:00 11.1 6 Noroeste 13 Noroeste 0 -- -- 73
2020-01-17 17:00:00 13.4 9 Noroeste 19 Noroeste 0 -- -- 65
2020-01-17 16:00:00 13.4 13 Noroeste 20 Noroeste 0 -- -- 65
2020-01-17 15:00:00 13.4 9 Noroeste 15 Norte 0 -- -- 69
2020-01-17 14:00:00 13.3 9 Oeste 18 Noroeste 0 -- -- 67
2020-01-17 13:00:00 13.3 6 Sur 15 Sudoeste 0 -- -- 71
2020-01-17 12:00:00 12 4 Oeste 15 Oeste 0 -- -- 80
2020-01-17 11:00:00 11.5 12 Oeste 19 Oeste 0 -- -- 83
2020-01-17 10:00:00 10 6 Oeste 12 Oeste 0 -- -- 92
2020-01-17 09:00:00 8.8 7 Oeste 9 Oeste 0 -- -- 96
2020-01-17 08:00:00 8.6 4 Sudoeste 10 Sudoeste 0 -- -- 90
2020-01-17 07:00:00 9.5 7 Sudoeste 10 Sur 0 -- -- 92
2020-01-17 06:00:00 9.2 6 Sudoeste 16 Sudoeste 0 -- -- 92
2020-01-17 05:00:00 8.9 6 Sur 18 Sudoeste 0.2 -- -- 91
2020-01-17 04:00:00 9.7 11 Sudoeste 17 Sur 0 -- -- 85
2020-01-17 03:00:00 9.7 9 Sur 21 Sur 0 -- -- 80
2020-01-17 02:00:00 9.5 13 Sur 21 Sur 0 -- -- 73
2020-01-17 01:00:00 8.9 4 Sudeste 15 Sur 0 -- -- 73
2020-01-17 00:00:00 9.1 8 Sur 13 Sudoeste 0 -- -- 64
2020-01-16 23:00:00 8.6 7 Sur 17 Sur 0 -- -- 68
2020-01-16 22:00:00 8.5 11 Sur 18 Sur 0 -- -- 65
2020-01-16 21:00:00 8.6 9 Sur 21 Sur 0 -- -- 60
2020-01-16 20:00:00 9.1 12 Sur 19 Sudoeste 0 -- -- 57
2020-01-16 19:00:00 10.7 8 Sur 18 Sudoeste 0 -- -- 54
2020-01-16 18:00:00 13.3 8 Sudoeste 28 Sudoeste 0 -- -- 45
2020-01-16 17:00:00 15 20 Sudoeste 28 Sudoeste 0 -- -- 41
2020-01-16 16:00:00 15.7 12 Sur 23 Sur 0 -- -- 41
2020-01-16 15:00:00 15.4 13 Sur 23 Sudoeste 0 -- -- 47
2020-01-16 14:00:00 15 14 Sur 28 Sur 0 -- -- 40
2020-01-16 13:00:00 13.9 11 Sur 23 Sur 0 -- -- 60
2020-01-16 12:00:00 12.4 10 Sur 19 Sudoeste 0 -- -- 68
2020-01-16 11:00:00 10.5 11 Sur 15 Sur 0 -- -- 75
2020-01-16 10:00:00 6.1 3 Sur 8 Este 0 -- -- 92
2020-01-16 09:00:00 4.9 3 Sudeste 11 Este 0 -- -- 92
2020-01-16 08:00:00 4.7 3 Sur 8 Sur 0 -- -- 97
2020-01-16 07:00:00 5.1 5 Sur 8 Sur 0 -- -- 97
2020-01-16 06:00:00 5.9 3 Sur 12 Sudeste 0 -- -- 97
2020-01-16 05:00:00 5.7 3 Sudeste 9 Sur 0 -- -- 96
2020-01-16 04:00:00 6.7 5 Sudeste 8 Sudeste 0 -- -- 95
2020-01-16 03:00:00 7.5 3 Sudoeste 8 Sur 0 -- -- 91
2020-01-16 02:00:00 8.9 2 Sur 8 Sudeste 0 -- -- 91
2020-01-16 01:00:00 9.4 6 Sur 13 Sur 0 -- -- 91
2020-01-16 00:00:00 9.9 8 Sur 19 Sur 0 -- -- 89
2020-01-15 23:00:00 9.9 13 Sur 22 Sur 0 -- -- 89
2020-01-15 22:00:00 9.7 13 Sur 19 Sur 0.2 -- -- 90
2020-01-15 21:00:00 10.1 11 Sur 17 Sur 0 -- -- 90
2020-01-15 20:00:00 10.4 8 Sur 18 Sur 0.2 -- -- 88
2020-01-15 19:00:00 10.7 9 Sur 19 Sudoeste 0 -- -- 88
2020-01-15 18:00:00 11.8 11 Sur 24 Sudoeste 0 -- -- 81
2020-01-15 17:00:00 12.3 12 Sur 26 Sudoeste 0 -- -- 77
2020-01-15 16:00:00 13.2 18 Sudoeste 31 Sur 0 -- -- 72
2020-01-15 15:00:00 13.9 15 Sur 30 Sur 0 -- -- 68
2020-01-15 14:00:00 11.4 18 Sur 35 Sudoeste 0 -- -- 77
2020-01-15 13:00:00 11.1 19 Sur 33 Sur 0 -- -- 78
2020-01-15 12:00:00 10.4 12 Sur 26 Sur 0 -- -- 78
2020-01-15 11:00:00 9.1 11 Sur 22 Sur 0 -- -- 77
2020-01-15 10:00:00 6.2 6 Sur 17 Sur 0 -- -- 86
2020-01-15 09:00:00 4.9 9 Sur 17 Sur 0 -- -- 91
2020-01-15 08:00:00 4.8 9 Sur 20 Sur 0 -- -- 91
2020-01-15 07:00:00 5 10 Sur 18 Sur 0 -- -- 90
2020-01-15 06:00:00 5.9 12 Sur 25 Sur 0 -- -- 87
2020-01-15 05:00:00 6.1 15 Sur 21 Sur 0 -- -- 87
2020-01-15 04:00:00 5.9 11 Sur 20 Sur 0 -- -- 87
2020-01-15 03:00:00 6.3 11 Sur 21 Sur 0 -- -- 85
2020-01-15 02:00:00 6.5 8 Sur 18 Sur 0 -- -- 85
2020-01-15 01:00:00 6.1 10 Sur 17 Sur 0 -- -- 87
2020-01-15 00:00:00 6.8 8 Sur 18 Sur 0 -- -- 82
2020-01-14 23:00:00 7.8 10 Sur 24 Sur 0 -- -- 78
2020-01-14 22:00:00 7.6 13 Sur 22 Sur 0 -- -- 79
2020-01-14 21:00:00 7.3 10 Sur 20 Sur 0 -- -- 81
2020-01-14 20:00:00 7.9 8 Sur 21 Sur 0 -- -- 78
2020-01-14 19:00:00 9.4 11 Sur 22 Sur 0 -- -- 72
2020-01-14 18:00:00 10.3 7 Sur 14 Sur 0 -- -- 68
2020-01-14 17:00:00 10.9 8 Sur 15 Sudoeste 0 -- -- 61
2020-01-14 16:00:00 11.4 8 Sudoeste 18 Sur 0 -- -- 61
2020-01-14 15:00:00 11.5 6 Sur 13 Sur 0 -- -- 60
2020-01-14 14:00:00 10.9 6 Sur 18 Sur 0 -- -- 62
2020-01-14 13:00:00 9.5 10 Sur 18 Sur 0 -- -- 78
2020-01-14 12:00:00 6.6 9 Sur 15 Sur 0 -- -- 89
2020-01-14 11:00:00 2.8 4 Sur 6 Sur 0 -- -- 100
2020-01-14 10:00:00 -0.2 2 Sur 6 Sur 0 -- -- 100
2020-01-14 09:00:00 -1.5 2 Sur 8 Sur 0 -- -- 99
2020-01-14 08:00:00 -1 3 Sur 8 Sur 0 -- -- 99
2020-01-14 07:00:00 -1 2 Sur 5 Sur 0 -- -- 99
2020-01-14 06:00:00 -0.6 2 Sur 6 Sur 0 -- -- 98
2020-01-14 05:00:00 -0.2 0 Calma 4 Sur 0 -- -- 98
2020-01-14 04:00:00 -0.3 2 Sudeste 6 Sur 0 -- -- 97
2020-01-14 03:00:00 -1 2 Sur 4 Sur 0 -- -- 97
2020-01-14 02:00:00 0.3 0 Calma 5 Sudeste 0 -- -- 97
2020-01-14 01:00:00 0.5 0 Calma 4 Sudoeste 0 -- -- 97
2020-01-14 00:00:00 0.5 2 Oeste 5 Sur 0 -- -- 94
2020-01-13 23:00:00 1.4 2 Sudoeste 5 Sur 0 -- -- 89
2020-01-13 22:00:00 3.2 0 Calma 12 Sur 0 -- -- 89
2020-01-13 21:00:00 2.4 2 Oeste 4 Sudeste 0 -- -- 87
2020-01-13 20:00:00 3.8 0 Calma 4 Oeste 0 -- -- 83
2020-01-13 19:00:00 7.3 0 Calma 4 Nordeste 0 -- -- 73
2020-01-13 18:00:00 10.4 0 Calma 6 Noroeste 0 -- -- 59
2020-01-13 17:00:00 11.5 5 Noroeste 14 Noroeste 0 -- -- 54
2020-01-13 16:00:00 12.1 8 Oeste 16 Oeste 0 -- -- 50
2020-01-13 15:00:00 12 8 Oeste 17 Sudoeste 0 -- -- 47
2020-01-13 14:00:00 11.2 4 Sur 17 Sudoeste 0 -- -- 59
2020-01-13 13:00:00 9.8 9 Sur 17 Sudoeste 0 -- -- 71
2020-01-13 12:00:00 8.1 8 Sur 13 Sur 0 -- -- 73
2020-01-13 11:00:00 4.9 0 Calma 6 Sudeste 0 -- -- 89
2020-01-13 10:00:00 0.9 0 Calma 5 Sudeste 0 -- -- 99
2020-01-13 09:00:00 -2.6 2 Sur 3 Sudoeste 0 -- -- 97
2020-01-13 08:00:00 -2.4 0 Calma 2 Este 0 -- -- 97
2020-01-13 07:00:00 -2.4 2 Sudeste 2 Sudeste 0 -- -- 97
2020-01-13 06:00:00 -2.4 0 Calma 4 Sudoeste 0 -- -- 96
2020-01-13 05:00:00 -2.3 0 Calma 4 Sur 0 -- -- 97
2020-01-13 04:00:00 -2.1 0 Calma 2 Sudoeste 0 -- -- 96
2020-01-13 03:00:00 -1.8 0 Calma 0 Calma 0 -- -- 95
2020-01-13 02:00:00 -1.5 0 Calma -- -- 0 -- -- 94
2020-01-13 01:00:00 -0.9 0 Calma 0 Calma 0 -- -- 93
2020-01-13 00:00:00 0.4 0 Calma 3 Sudoeste 0 -- -- 95
2020-01-12 23:00:00 0.5 0 Calma 4 Este 0 -- -- 92
2020-01-12 22:00:00 1.6 0 Calma 2 Oeste 0 -- -- 91
2020-01-12 21:00:00 3.1 2 Oeste 3 Oeste 0 -- -- 85
2020-01-12 20:00:00 4.7 0 Calma 3 Sudoeste 0 -- -- 82
2020-01-12 19:00:00 6.1 3 Norte 10 Norte 0 -- -- 78
2020-01-12 18:00:00 10.8 5 Norte 11 Nordeste 0 -- -- 63
2020-01-12 17:00:00 12.3 8 Nordeste 12 Nordeste 0 -- -- 46
2020-01-12 16:00:00 13.3 6 Norte 9 Norte 0 -- -- 48
2020-01-12 15:00:00 12.5 3 Norte 9 Noroeste 0 -- -- 50
2020-01-12 14:00:00 12.5 3 Oeste 8 Sudoeste 0 -- -- 51
2020-01-12 13:00:00 11.4 3 Sudeste 6 Sudeste 0 -- -- 51
2020-01-12 12:00:00 9.7 0 Calma 4 Este 0 -- -- 67
2020-01-12 11:00:00 6.2 0 Calma 5 Sur 0 -- -- 83
2020-01-12 10:00:00 1.9 0 Calma 6 Sur 0 -- -- 99
2020-01-12 09:00:00 -2 3 Sur 5 Sur 0 -- -- 98
2020-01-12 08:00:00 -2.9 0 Calma 2 Oeste 0 -- -- 95
2020-01-12 07:00:00 -2.3 0 Calma 2 Sudoeste 0 -- -- 96
2020-01-12 06:00:00 -2 0 Calma 2 Sur 0 -- -- 96
2020-01-12 05:00:00 -2.1 0 Calma 3 Oeste 0 -- -- 95
2020-01-12 04:00:00 -1.9 0 Calma 2 Sudoeste 0 -- -- 94
2020-01-12 03:00:00 -1.2 0 Calma 2 Oeste 0 -- -- 95
2020-01-12 02:00:00 -0.7 0 Calma 2 Oeste 0 -- -- 94
2020-01-12 01:00:00 -0.3 0 Calma 2 Sudeste 0 -- -- 93
2020-01-12 00:00:00 0.1 0 Calma 4 Sudoeste 0 -- -- 93
2020-01-11 23:00:00 0.7 3 Sudoeste 5 Oeste 0 -- -- 86
2020-01-11 22:00:00 2.1 2 Noroeste 4 Noroeste 0 -- -- 88
2020-01-11 21:00:00 2.9 0 Calma 5 Noroeste 0 -- -- 85
2020-01-11 20:00:00 4.9 4 Noroeste 9 Nordeste 0 -- -- 77
2020-01-11 19:00:00 7.9 7 Nordeste 9 Nordeste 0 -- -- 66
2020-01-11 18:00:00 10.4 4 Norte 13 Nordeste 0 -- -- 60
2020-01-11 17:00:00 11.5 9 Norte 18 Norte 0 -- -- 54
2020-01-11 16:00:00 11.6 7 Nordeste 15 Nordeste 0 -- -- 55
2020-01-11 15:00:00 11.4 8 Nordeste 17 Nordeste 0 -- -- 56
2020-01-11 14:00:00 10.4 8 Nordeste 18 Nordeste 0 -- -- 60
2020-01-11 13:00:00 9.1 11 Nordeste 19 Nordeste 0 -- -- 63
2020-01-11 12:00:00 7.7 8 Nordeste 16 Este 0 -- -- 69
2020-01-11 11:00:00 5.4 8 Nordeste 17 Nordeste 0 -- -- 76
2020-01-11 10:00:00 3.6 5 Nordeste 11 Nordeste 0 -- -- 79
2020-01-11 09:00:00 1.2 2 Nordeste 15 Nordeste 0 -- -- 84
2020-01-11 08:00:00 1.2 10 Nordeste 19 Nordeste 0 -- -- 85
2020-01-11 07:00:00 1.2 2 Sur 15 Nordeste 0 -- -- 83
2020-01-11 06:00:00 1.5 5 Nordeste 12 Nordeste 0 -- -- 81
2020-01-11 05:00:00 1.7 4 Nordeste 8 Nordeste 0 -- -- 80
2020-01-11 04:00:00 2.6 4 Nordeste 13 Este 0 -- -- 76
2020-01-11 03:00:00 3 3 Nordeste 13 Norte 0 -- -- 74
2020-01-11 02:00:00 4.3 10 Norte 15 Norte 0 -- -- 71
2020-01-11 01:00:00 2.1 5 Norte 7 Norte 0 -- -- 79
2020-01-11 00:00:00 3.2 4 Nordeste 9 Norte 0 -- -- 74
2020-01-10 23:00:00 1.6 3 Noroeste 4 Norte 0 -- -- 81
2020-01-10 22:00:00 3.8 0 Calma 9 Nordeste 0 -- -- 72
2020-01-10 21:00:00 5.7 4 Norte 8 Nordeste 0 -- -- 63
2020-01-10 20:00:00 6.6 6 Nordeste 13 Norte 0 -- -- 62
2020-01-10 19:00:00 8.1 4 Nordeste 16 Norte 0 -- -- 63
2020-01-10 18:00:00 10.2 12 Norte 21 Nordeste 0 -- -- 62
2020-01-10 17:00:00 11.7 13 Nordeste 22 Nordeste 0 -- -- 52
2020-01-10 16:00:00 11.7 10 Nordeste 24 Nordeste 0 -- -- 56
2020-01-10 15:00:00 11.1 13 Nordeste 26 Nordeste 0 -- -- 61
2020-01-10 14:00:00 9.9 11 Nordeste 23 Nordeste 0 -- -- 76
2020-01-10 13:00:00 9.5 8 Nordeste 15 Norte 0 -- -- 80
2020-01-10 12:00:00 7.9 5 Nordeste 12 Norte 0 -- -- 80
2020-01-10 11:00:00 6.2 4 Norte 7 Norte 0 -- -- 97
2020-01-10 10:00:00 2.3 0 Calma 6 Este 0 -- -- 100
2020-01-10 09:00:00 1.7 0 Calma 8 Sur 0 -- -- 98
2020-01-10 08:00:00 2.6 3 Sudeste 12 Noroeste 0 -- -- 98
2020-01-10 07:00:00 4.4 14 Noroeste 16 Noroeste 0 -- -- 98
2020-01-10 06:00:00 4.5 10 Noroeste 15 Noroeste 0 -- -- 95
2020-01-10 05:00:00 6 8 Oeste 20 Oeste 0 -- -- 95
2020-01-10 04:00:00 7.2 15 Oeste 20 Oeste 0 -- -- 98
2020-01-10 03:00:00 6.9 9 Noroeste 13 Noroeste 0 -- -- 98
2020-01-10 02:00:00 5.6 0 Calma 3 Sur 0 -- -- 96
2020-01-10 01:00:00 4.9 0 Calma 5 Sur 0 -- -- 96
2020-01-10 00:00:00 2.9 2 Sudoeste 5 Sur 0 -- -- 93
2020-01-09 23:00:00 3.3 0 Calma 6 Este 0 -- -- 90
2020-01-09 22:00:00 4.2 0 Calma 4 Sudeste 0 -- -- 90
2020-01-09 21:00:00 5.1 0 Calma 3 Este 0 -- -- 87
2020-01-09 20:00:00 6.8 0 Calma 8 Noroeste 0 -- -- 83
2020-01-09 19:00:00 8.8 5 Sudoeste 9 Oeste 0 -- -- 76
2020-01-09 18:00:00 11.9 10 Oeste 13 Oeste 0 -- -- 66
2020-01-09 17:00:00 13.9 5 Oeste 10 Noroeste 0 -- -- 56
2020-01-09 16:00:00 14 4 Sudoeste 13 Oeste 0 -- -- 56
2020-01-09 15:00:00 13.1 10 Noroeste 18 Oeste 0 -- -- 58
2020-01-09 14:00:00 12.6 10 Oeste 21 Oeste 0 -- -- 53
2020-01-09 13:00:00 11.4 8 Sudoeste 14 Sudoeste 0 -- -- 67
2020-01-09 12:00:00 9.8 8 Sur 11 Sur 0 -- -- 72
2020-01-09 11:00:00 7 3 Sur 6 Sudoeste 0 -- -- 82
2020-01-09 10:00:00 2.5 0 Calma 4 Sudeste 0 -- -- 97
2020-01-09 09:00:00 -1 0 Calma 3 Oeste 0 -- -- 95
2020-01-09 08:00:00 0 2 Sudoeste 4 Sudeste 0 -- -- 96
2020-01-09 07:00:00 0.1 0 Calma 4 Sudoeste 0 -- -- 93
2020-01-09 06:00:00 1.7 0 Calma 8 Sur 0 -- -- 90
2020-01-09 05:00:00 3.3 5 Sur 9 Sur 0 -- -- 90
2020-01-09 04:00:00 3.4 5 Sur 8 Sur 0 -- -- 94
2020-01-09 03:00:00 1 3 Sur 6 Sur 0 -- -- 97
2020-01-09 02:00:00 1 0 Calma 3 Oeste 0 -- -- 95
2020-01-09 01:00:00 1.1 2 Noroeste 3 Noroeste 0 -- -- 93
2020-01-09 00:00:00 2.3 2 Oeste 5 Oeste 0 -- -- 95
2020-01-08 23:00:00 2.4 0 Calma 3 Noroeste 0 -- -- 92
2020-01-08 22:00:00 3.3 0 Calma 4 Este 0 -- -- 86
2020-01-08 21:00:00 5.3 0 Calma 5 Noroeste 0 -- -- 80
2020-01-08 20:00:00 6.4 3 Oeste 4 Oeste 0 -- -- 78
2020-01-08 19:00:00 10.4 3 Sudoeste 4 Sudoeste 0 -- -- 67
2020-01-08 18:00:00 15.6 0 Calma 4 Este 0 -- -- 53
2020-01-08 17:00:00 18.1 0 Calma 6 Este 0 -- -- 46
2020-01-08 16:00:00 17.3 0 Calma 5 Nordeste 0 -- -- 50
2020-01-08 15:00:00 16.4 4 Nordeste 8 Nordeste 0 -- -- 52
2020-01-08 14:00:00 15.3 3 Norte 5 Norte 0 -- -- 48
2020-01-08 13:00:00 14.1 4 Este 6 Este 0 -- -- 60
2020-01-08 12:00:00 11.8 0 Calma 4 Noroeste 0 -- -- 74
2020-01-08 11:00:00 8 0 Calma 3 Norte 0 -- -- 91
2020-01-08 10:00:00 2.5 2 Sur 3 Sur 0 -- -- 100
2020-01-08 09:00:00 -1.3 0 Calma 2 Sudoeste 0 -- -- 97
2020-01-08 08:00:00 -1.6 0 Calma 2 Oeste 0 -- -- 97
2020-01-08 07:00:00 -0.6 0 Calma 5 Este 0 -- -- 97
2020-01-08 06:00:00 -1 0 Calma 2 Oeste 0 -- -- 96
2020-01-08 05:00:00 0.1 0 Calma 4 Oeste 0 -- -- 96
2020-01-08 04:00:00 -0.6 0 Calma 0 Calma 0 -- -- 95
2020-01-08 03:00:00 -0.2 0 Calma 2 Oeste 0 -- -- 95
2020-01-08 02:00:00 0.3 0 Calma 4 Nordeste 0 -- -- 94
2020-01-08 01:00:00 0.7 0 Calma 3 Nordeste 0 -- -- 92
2020-01-08 00:00:00 1.6 0 Calma 2 Sudoeste 0 -- -- 94
2020-01-07 23:00:00 2.1 0 Calma 3 Sur 0 -- -- 90
2020-01-07 22:00:00 3 0 Calma 6 Noroeste 0 -- -- 86
2020-01-07 21:00:00 3.4 2 Noroeste 4 Noroeste 0 -- -- 85
2020-01-07 20:00:00 5.1 0 Calma 4 Oeste 0 -- -- 80
2020-01-07 19:00:00 7.8 0 Calma 4 Nordeste 0 -- -- 73
2020-01-07 18:00:00 13.4 2 Nordeste 6 Nordeste 0 -- -- 54
2020-01-07 17:00:00 14.8 3 Nordeste 12 Nordeste 0 -- -- 45
2020-01-07 16:00:00 15.1 7 Nordeste 13 Nordeste 0 -- -- 42
2020-01-07 15:00:00 14.7 8 Noroeste 16 Nordeste 0 -- -- 53
2020-01-07 14:00:00 13.6 7 Nordeste 14 Este 0 -- -- 56
2020-01-07 13:00:00 12.3 5 Nordeste 9 Norte 0 -- -- 69
2020-01-07 12:00:00 9.9 3 Nordeste 13 Nordeste 0 -- -- 74
2020-01-07 11:00:00 6.3 0 Calma 4 Nordeste 0 -- -- 99
2020-01-07 10:00:00 0.5 0 Calma 2 Oeste 0 -- -- 100
2020-01-07 09:00:00 -1.8 0 Calma 0 Calma 0 -- -- 98
2020-01-07 08:00:00 -0.8 0 Calma 4 Norte 0 -- -- 97
2020-01-07 07:00:00 -0.6 0 Calma 3 Oeste 0 -- -- 97
2020-01-07 06:00:00 -0.4 2 Oeste 4 Oeste 0 -- -- 97
2020-01-07 05:00:00 -0.3 0 Calma 3 Sudeste 0 -- -- 97
2020-01-07 04:00:00 -0.2 0 Calma 3 Este 0 -- -- 97
2020-01-07 03:00:00 -0.2 0 Calma 5 Norte 0 -- -- 96
2020-01-07 02:00:00 0.5 0 Calma 0 Calma 0 -- -- 95
2020-01-07 01:00:00 0.6 0 Calma 2 Sudeste 0 -- -- 94
2020-01-07 00:00:00 1.5 0 Calma 2 Sur 0 -- -- 94
2020-01-06 23:00:00 2.4 0 Calma 3 Este 0 -- -- 89
2020-01-06 22:00:00 3.9 0 Calma 6 Noroeste 0 -- -- 90
2020-01-06 21:00:00 3.8 3 Noroeste 7 Noroeste 0 -- -- 90
2020-01-06 20:00:00 5 0 Calma 7 Noroeste 0 -- -- 88
2020-01-06 19:00:00 7.7 0 Calma 9 Este 0 -- -- 79
2020-01-06 18:00:00 12.1 5 Este 9 Este 0 -- -- 64
2020-01-06 17:00:00 14.2 5 Nordeste 10 Nordeste 0 -- -- 61
2020-01-06 16:00:00 14.9 0 Calma 8 Sudeste 0 -- -- 53
2020-01-06 15:00:00 14.2 0 Calma 6 Este 0 -- -- 56
2020-01-06 14:00:00 12.8 4 Norte 8 Oeste 0 -- -- 62
2020-01-06 13:00:00 11.4 2 Norte 6 Noroeste 0 -- -- 71
2020-01-06 12:00:00 9.3 0 Calma 6 Noroeste 0 -- -- 82
2020-01-06 11:00:00 5.9 0 Calma 2 Este 0 -- -- 99
2020-01-06 10:00:00 1.1 0 Calma 3 Sudeste 0 -- -- 100